sensor_id;sensor_type;location;lat;lon;timestamp;P1;durP1;ratioP1;P2;durP2;ratioP2
76935;SDS011;65881;52.438;16.744;2023-06-19T00:00:07;17.25;;;13.63;;
76935;SDS011;65881;52.438;16.744;2023-06-19T00:05:04;12.90;;;11.60;;
76935;SDS011;65881;52.438;16.744;2023-06-19T00:07:30;14.88;;;13.38;;
76935;SDS011;65881;52.438;16.744;2023-06-19T00:09:55;14.63;;;13.13;;
76935;SDS011;65881;52.438;16.744;2023-06-19T00:12:21;14.70;;;13.18;;
76935;SDS011;65881;52.438;16.744;2023-06-19T00:14:47;14.55;;;13.07;;
76935;SDS011;65881;52.438;16.744;2023-06-19T00:17:13;15.23;;;13.63;;
76935;SDS011;65881;52.438;16.744;2023-06-19T00:19:42;14.55;;;13.02;;
76935;SDS011;65881;52.438;16.744;2023-06-19T00:22:08;13.43;;;12.13;;
76935;SDS011;65881;52.438;16.744;2023-06-19T00:24:33;12.63;;;11.43;;
76935;SDS011;65881;52.438;16.744;2023-06-19T00:26:59;13.85;;;12.45;;
76935;SDS011;65881;52.438;16.744;2023-06-19T00:29:31;14.18;;;12.75;;
76935;SDS011;65881;52.438;16.744;2023-06-19T00:32:00;13.93;;;12.38;;
76935;SDS011;65881;52.438;16.744;2023-06-19T00:34:29;18.45;;;13.13;;
76935;SDS011;65881;52.438;16.744;2023-06-19T00:36:58;15.18;;;13.68;;
76935;SDS011;65881;52.438;16.744;2023-06-19T00:39:24;14.88;;;13.25;;
76935;SDS011;65881;52.438;16.744;2023-06-19T00:41:54;17.70;;;14.73;;
76935;SDS011;65881;52.438;16.744;2023-06-19T00:44:20;16.60;;;13.40;;
76935;SDS011;65881;52.438;16.744;2023-06-19T00:46:50;13.00;;;11.70;;
76935;SDS011;65881;52.438;16.744;2023-06-19T00:49:19;14.90;;;13.32;;
76935;SDS011;65881;52.438;16.744;2023-06-19T00:51:45;16.75;;;13.43;;
76935;SDS011;65881;52.438;16.744;2023-06-19T00:54:11;14.15;;;12.63;;
76935;SDS011;65881;52.438;16.744;2023-06-19T00:56:37;16.95;;;14.60;;
76935;SDS011;65881;52.438;16.744;2023-06-19T00:59:06;15.68;;;13.57;;
76935;SDS011;65881;52.438;16.744;2023-06-19T01:01:44;18.50;;;14.23;;
76935;SDS011;65881;52.438;16.744;2023-06-19T01:04:11;16.75;;;14.75;;
76935;SDS011;65881;52.438;16.744;2023-06-19T01:06:50;16.50;;;14.40;;
76935;SDS011;65881;52.438;16.744;2023-06-19T01:09:28;19.40;;;15.90;;
76935;SDS011;65881;52.438;16.744;2023-06-19T01:12:01;15.27;;;13.82;;
76935;SDS011;65881;52.438;16.744;2023-06-19T01:14:38;17.10;;;14.02;;
76935;SDS011;65881;52.438;16.744;2023-06-19T01:17:10;16.25;;;14.52;;
76935;SDS011;65881;52.438;16.744;2023-06-19T01:19:36;16.60;;;14.85;;
76935;SDS011;65881;52.438;16.744;2023-06-19T01:22:03;16.95;;;15.23;;
76935;SDS011;65881;52.438;16.744;2023-06-19T01:24:29;17.95;;;16.13;;
76935;SDS011;65881;52.438;16.744;2023-06-19T01:26:55;18.45;;;15.32;;
76935;SDS011;65881;52.438;16.744;2023-06-19T01:29:21;18.55;;;15.35;;
76935;SDS011;65881;52.438;16.744;2023-06-19T01:34:19;17.65;;;14.30;;
76935;SDS011;65881;52.438;16.744;2023-06-19T01:36:47;16.00;;;14.25;;
76935;SDS011;65881;52.438;16.744;2023-06-19T01:39:15;17.25;;;14.40;;
76935;SDS011;65881;52.438;16.744;2023-06-19T01:41:42;16.88;;;14.23;;
76935;SDS011;65881;52.438;16.744;2023-06-19T01:44:11;14.95;;;13.18;;
76935;SDS011;65881;52.438;16.744;2023-06-19T01:46:37;17.48;;;14.43;;
76935;SDS011;65881;52.438;16.744;2023-06-19T01:49:05;17.23;;;15.38;;
76935;SDS011;65881;52.438;16.744;2023-06-19T01:51:33;16.30;;;14.15;;
76935;SDS011;65881;52.438;16.744;2023-06-19T01:53:59;16.55;;;14.32;;
76935;SDS011;65881;52.438;16.744;2023-06-19T01:56:24;19.40;;;15.27;;
76935;SDS011;65881;52.438;16.744;2023-06-19T01:58:51;16.25;;;14.50;;
76935;SDS011;65881;52.438;16.744;2023-06-19T02:01:16;17.27;;;15.57;;
76935;SDS011;65881;52.438;16.744;2023-06-19T02:03:42;18.08;;;16.27;;
76935;SDS011;65881;52.438;16.744;2023-06-19T02:06:08;18.70;;;16.65;;
76935;SDS011;65881;52.438;16.744;2023-06-19T02:08:33;18.98;;;15.70;;
76935;SDS011;65881;52.438;16.744;2023-06-19T02:10:59;19.02;;;16.00;;
76935;SDS011;65881;52.438;16.744;2023-06-19T02:13:25;17.58;;;14.85;;
76935;SDS011;65881;52.438;16.744;2023-06-19T02:15:50;19.85;;;16.55;;
76935;SDS011;65881;52.438;16.744;2023-06-19T02:18:16;19.75;;;16.70;;
76935;SDS011;65881;52.438;16.744;2023-06-19T02:20:42;18.27;;;15.02;;
76935;SDS011;65881;52.438;16.744;2023-06-19T02:23:07;18.10;;;16.20;;
76935;SDS011;65881;52.438;16.744;2023-06-19T02:25:33;17.55;;;14.20;;
76935;SDS011;65881;52.438;16.744;2023-06-19T02:28:11;19.60;;;15.13;;
76935;SDS011;65881;52.438;16.744;2023-06-19T02:30:37;19.05;;;16.88;;
76935;SDS011;65881;52.438;16.744;2023-06-19T02:33:02;19.98;;;16.17;;
76935;SDS011;65881;52.438;16.744;2023-06-19T02:35:28;19.05;;;16.17;;
76935;SDS011;65881;52.438;16.744;2023-06-19T02:37:54;21.60;;;19.05;;
76935;SDS011;65881;52.438;16.744;2023-06-19T02:40:19;18.05;;;16.15;;
76935;SDS011;65881;52.438;16.744;2023-06-19T02:42:45;19.63;;;16.08;;
76935;SDS011;65881;52.438;16.744;2023-06-19T02:45:10;20.33;;;16.45;;
76935;SDS011;65881;52.438;16.744;2023-06-19T02:47:36;21.30;;;17.88;;
76935;SDS011;65881;52.438;16.744;2023-06-19T02:50:02;19.20;;;15.77;;
76935;SDS011;65881;52.438;16.744;2023-06-19T02:52:29;20.48;;;16.27;;
76935;SDS011;65881;52.438;16.744;2023-06-19T02:54:55;19.35;;;15.18;;
76935;SDS011;65881;52.438;16.744;2023-06-19T02:57:20;18.42;;;16.45;;
76935;SDS011;65881;52.438;16.744;2023-06-19T02:59:46;20.77;;;16.50;;
76935;SDS011;65881;52.438;16.744;2023-06-19T03:02:12;18.80;;;15.82;;
76935;SDS011;65881;52.438;16.744;2023-06-19T03:04:39;18.48;;;15.20;;
76935;SDS011;65881;52.438;16.744;2023-06-19T03:07:09;16.17;;;14.48;;
76935;SDS011;65881;52.438;16.744;2023-06-19T03:09:34;19.30;;;14.98;;
76935;SDS011;65881;52.438;16.744;2023-06-19T03:12:00;19.45;;;17.38;;
76935;SDS011;65881;52.438;16.744;2023-06-19T03:14:26;20.05;;;16.85;;
76935;SDS011;65881;52.438;16.744;2023-06-19T03:16:52;18.85;;;16.00;;
76935;SDS011;65881;52.438;16.744;2023-06-19T03:19:17;20.30;;;16.52;;
76935;SDS011;65881;52.438;16.744;2023-06-19T03:21:43;19.58;;;16.52;;
76935;SDS011;65881;52.438;16.744;2023-06-19T03:24:09;23.40;;;17.85;;
76935;SDS011;65881;52.438;16.744;2023-06-19T03:26:34;20.58;;;18.08;;
76935;SDS011;65881;52.438;16.744;2023-06-19T03:29:00;20.42;;;17.98;;
76935;SDS011;65881;52.438;16.744;2023-06-19T03:31:25;22.85;;;16.65;;
76935;SDS011;65881;52.438;16.744;2023-06-19T03:33:57;19.33;;;15.38;;
76935;SDS011;65881;52.438;16.744;2023-06-19T03:36:23;21.85;;;17.05;;
76935;SDS011;65881;52.438;16.744;2023-06-19T03:38:49;20.60;;;16.35;;
76935;SDS011;65881;52.438;16.744;2023-06-19T03:41:15;22.55;;;17.75;;
76935;SDS011;65881;52.438;16.744;2023-06-19T03:46:11;21.65;;;17.08;;
76935;SDS011;65881;52.438;16.744;2023-06-19T03:48:37;24.67;;;17.95;;
76935;SDS011;65881;52.438;16.744;2023-06-19T03:51:02;26.17;;;19.13;;
76935;SDS011;65881;52.438;16.744;2023-06-19T03:53:28;18.73;;;16.60;;
76935;SDS011;65881;52.438;16.744;2023-06-19T03:55:54;20.52;;;17.00;;
76935;SDS011;65881;52.438;16.744;2023-06-19T03:58:20;23.15;;;17.92;;
76935;SDS011;65881;52.438;16.744;2023-06-19T04:00:46;19.92;;;17.08;;
76935;SDS011;65881;52.438;16.744;2023-06-19T04:03:11;21.40;;;18.52;;
76935;SDS011;65881;52.438;16.744;2023-06-19T04:05:37;21.00;;;18.25;;
76935;SDS011;65881;52.438;16.744;2023-06-19T04:08:04;21.70;;;17.20;;
76935;SDS011;65881;52.438;16.744;2023-06-19T04:10:30;21.75;;;17.67;;
76935;SDS011;65881;52.438;16.744;2023-06-19T04:12:56;19.90;;;17.80;;
76935;SDS011;65881;52.438;16.744;2023-06-19T04:15:22;23.50;;;19.25;;
76935;SDS011;65881;52.438;16.744;2023-06-19T04:17:56;22.80;;;18.48;;
76935;SDS011;65881;52.438;16.744;2023-06-19T04:20:21;21.20;;;17.80;;
76935;SDS011;65881;52.438;16.744;2023-06-19T04:22:47;21.17;;;18.60;;
76935;SDS011;65881;52.438;16.744;2023-06-19T04:25:13;25.48;;;20.02;;
76935;SDS011;65881;52.438;16.744;2023-06-19T04:27:39;20.25;;;17.60;;
76935;SDS011;65881;52.438;16.744;2023-06-19T04:30:05;23.08;;;19.58;;
76935;SDS011;65881;52.438;16.744;2023-06-19T04:32:31;21.85;;;17.10;;
76935;SDS011;65881;52.438;16.744;2023-06-19T04:34:59;23.95;;;19.60;;
76935;SDS011;65881;52.438;16.744;2023-06-19T04:37:25;23.90;;;18.80;;
76935;SDS011;65881;52.438;16.744;2023-06-19T04:39:51;24.20;;;19.75;;
76935;SDS011;65881;52.438;16.744;2023-06-19T04:42:17;21.05;;;17.63;;
76935;SDS011;65881;52.438;16.744;2023-06-19T04:44:46;19.88;;;15.90;;
76935;SDS011;65881;52.438;16.744;2023-06-19T04:47:12;22.27;;;18.15;;
76935;SDS011;65881;52.438;16.744;2023-06-19T04:49:38;21.55;;;18.38;;
76935;SDS011;65881;52.438;16.744;2023-06-19T04:52:04;20.13;;;16.95;;
76935;SDS011;65881;52.438;16.744;2023-06-19T04:54:30;23.60;;;19.25;;
76935;SDS011;65881;52.438;16.744;2023-06-19T04:56:58;22.35;;;19.30;;
76935;SDS011;65881;52.438;16.744;2023-06-19T04:59:23;23.90;;;18.15;;
76935;SDS011;65881;52.438;16.744;2023-06-19T05:01:49;20.35;;;17.60;;
76935;SDS011;65881;52.438;16.744;2023-06-19T05:04:18;21.08;;;17.55;;
76935;SDS011;65881;52.438;16.744;2023-06-19T05:06:47;27.00;;;20.85;;
76935;SDS011;65881;52.438;16.744;2023-06-19T05:09:15;20.65;;;18.15;;
76935;SDS011;65881;52.438;16.744;2023-06-19T05:11:40;20.38;;;18.13;;
76935;SDS011;65881;52.438;16.744;2023-06-19T05:14:06;21.20;;;18.58;;
76935;SDS011;65881;52.438;16.744;2023-06-19T05:16:33;25.80;;;21.42;;
76935;SDS011;65881;52.438;16.744;2023-06-19T05:18:59;29.08;;;21.30;;
76935;SDS011;65881;52.438;16.744;2023-06-19T05:21:25;23.95;;;20.60;;
76935;SDS011;65881;52.438;16.744;2023-06-19T05:23:52;23.85;;;19.23;;
76935;SDS011;65881;52.438;16.744;2023-06-19T05:26:29;28.05;;;21.33;;
76935;SDS011;65881;52.438;16.744;2023-06-19T05:28:55;23.83;;;19.55;;
76935;SDS011;65881;52.438;16.744;2023-06-19T05:31:20;25.02;;;20.80;;
76935;SDS011;65881;52.438;16.744;2023-06-19T05:33:46;22.35;;;18.50;;
76935;SDS011;65881;52.438;16.744;2023-06-19T05:36:12;22.63;;;19.27;;
76935;SDS011;65881;52.438;16.744;2023-06-19T05:38:37;21.70;;;19.13;;
76935;SDS011;65881;52.438;16.744;2023-06-19T05:41:03;24.92;;;19.80;;
76935;SDS011;65881;52.438;16.744;2023-06-19T05:43:29;23.70;;;19.45;;
76935;SDS011;65881;52.438;16.744;2023-06-19T05:45:56;21.30;;;18.08;;
76935;SDS011;65881;52.438;16.744;2023-06-19T05:51:13;21.33;;;18.38;;
76935;SDS011;65881;52.438;16.744;2023-06-19T05:53:39;23.85;;;17.67;;
76935;SDS011;65881;52.438;16.744;2023-06-19T05:56:06;20.48;;;17.60;;
76935;SDS011;65881;52.438;16.744;2023-06-19T05:58:32;22.10;;;17.33;;
76935;SDS011;65881;52.438;16.744;2023-06-19T06:00:58;19.42;;;16.30;;
76935;SDS011;65881;52.438;16.744;2023-06-19T06:03:30;25.08;;;16.15;;
76935;SDS011;65881;52.438;16.744;2023-06-19T06:05:57;27.83;;;15.25;;
76935;SDS011;65881;52.438;16.744;2023-06-19T06:08:43;31.45;;;17.40;;
76935;SDS011;65881;52.438;16.744;2023-06-19T06:11:20;20.70;;;15.20;;
76935;SDS011;65881;52.438;16.744;2023-06-19T06:13:52;25.88;;;15.55;;
76935;SDS011;65881;52.438;16.744;2023-06-19T06:16:19;18.17;;;14.35;;
76935;SDS011;65881;52.438;16.744;2023-06-19T06:18:47;17.58;;;14.35;;
76935;SDS011;65881;52.438;16.744;2023-06-19T06:21:31;20.02;;;14.98;;
76935;SDS011;65881;52.438;16.744;2023-06-19T06:24:00;22.83;;;14.25;;
76935;SDS011;65881;52.438;16.744;2023-06-19T06:26:26;22.65;;;14.90;;
76935;SDS011;65881;52.438;16.744;2023-06-19T06:28:56;23.02;;;15.65;;
76935;SDS011;65881;52.438;16.744;2023-06-19T06:31:23;20.52;;;14.50;;
76935;SDS011;65881;52.438;16.744;2023-06-19T06:33:49;20.38;;;14.38;;
76935;SDS011;65881;52.438;16.744;2023-06-19T06:39:14;16.25;;;13.32;;
76935;SDS011;65881;52.438;16.744;2023-06-19T06:41:40;14.63;;;13.07;;
76935;SDS011;65881;52.438;16.744;2023-06-19T06:44:09;17.42;;;14.13;;
76935;SDS011;65881;52.438;16.744;2023-06-19T06:46:35;14.75;;;11.27;;
76935;SDS011;65881;52.438;16.744;2023-06-19T06:49:01;19.10;;;11.55;;
76935;SDS011;65881;52.438;16.744;2023-06-19T06:51:28;14.27;;;11.85;;
76935;SDS011;65881;52.438;16.744;2023-06-19T06:53:54;15.88;;;11.45;;
76935;SDS011;65881;52.438;16.744;2023-06-19T06:56:19;12.60;;;11.30;;
76935;SDS011;65881;52.438;16.744;2023-06-19T06:58:48;13.68;;;9.95;;
76935;SDS011;65881;52.438;16.744;2023-06-19T07:01:14;9.93;;;8.80;;
76935;SDS011;65881;52.438;16.744;2023-06-19T07:03:39;14.95;;;10.27;;
76935;SDS011;65881;52.438;16.744;2023-06-19T07:06:14;11.10;;;8.65;;
76935;SDS011;65881;52.438;16.744;2023-06-19T07:08:40;14.10;;;9.57;;
76935;SDS011;65881;52.438;16.744;2023-06-19T07:11:06;11.65;;;8.23;;
76935;SDS011;65881;52.438;16.744;2023-06-19T07:13:32;10.25;;;8.52;;
76935;SDS011;65881;52.438;16.744;2023-06-19T07:15:58;8.48;;;7.63;;
76935;SDS011;65881;52.438;16.744;2023-06-19T07:18:31;13.68;;;6.35;;
76935;SDS011;65881;52.438;16.744;2023-06-19T07:20:58;10.02;;;6.93;;
76935;SDS011;65881;52.438;16.744;2023-06-19T07:23:24;8.98;;;7.32;;
76935;SDS011;65881;52.438;16.744;2023-06-19T07:25:49;12.20;;;7.43;;
76935;SDS011;65881;52.438;16.744;2023-06-19T07:28:15;9.70;;;7.55;;
76935;SDS011;65881;52.438;16.744;2023-06-19T07:30:41;13.40;;;8.30;;
76935;SDS011;65881;52.438;16.744;2023-06-19T07:33:06;9.80;;;7.22;;
76935;SDS011;65881;52.438;16.744;2023-06-19T07:35:32;8.13;;;6.80;;
76935;SDS011;65881;52.438;16.744;2023-06-19T07:37:58;8.45;;;7.07;;
76935;SDS011;65881;52.438;16.744;2023-06-19T07:42:53;9.85;;;6.97;;
76935;SDS011;65881;52.438;16.744;2023-06-19T07:45:18;7.88;;;6.60;;
76935;SDS011;65881;52.438;16.744;2023-06-19T07:47:55;7.60;;;6.78;;
76935;SDS011;65881;52.438;16.744;2023-06-19T07:50:21;9.40;;;6.53;;
76935;SDS011;65881;52.438;16.744;2023-06-19T07:52:47;7.47;;;6.60;;
76935;SDS011;65881;52.438;16.744;2023-06-19T07:55:12;8.25;;;6.22;;
76935;SDS011;65881;52.438;16.744;2023-06-19T07:57:38;11.93;;;7.13;;
76935;SDS011;65881;52.438;16.744;2023-06-19T08:00:04;8.10;;;7.28;;
76935;SDS011;65881;52.438;16.744;2023-06-19T08:02:37;9.40;;;6.70;;
76935;SDS011;65881;52.438;16.744;2023-06-19T08:05:08;9.23;;;7.20;;
76935;SDS011;65881;52.438;16.744;2023-06-19T08:07:37;8.05;;;7.15;;
76935;SDS011;65881;52.438;16.744;2023-06-19T08:10:06;10.70;;;6.68;;
76935;SDS011;65881;52.438;16.744;2023-06-19T08:12:33;8.07;;;7.18;;
76935;SDS011;65881;52.438;16.744;2023-06-19T08:15:03;8.25;;;7.05;;
76935;SDS011;65881;52.438;16.744;2023-06-19T08:17:29;10.02;;;8.00;;
76935;SDS011;65881;52.438;16.744;2023-06-19T08:19:56;8.40;;;7.05;;
76935;SDS011;65881;52.438;16.744;2023-06-19T08:22:22;7.88;;;7.07;;
76935;SDS011;65881;52.438;16.744;2023-06-19T08:24:49;8.32;;;7.53;;
76935;SDS011;65881;52.438;16.744;2023-06-19T08:27:15;8.00;;;6.55;;
76935;SDS011;65881;52.438;16.744;2023-06-19T08:29:40;8.35;;;7.35;;
76935;SDS011;65881;52.438;16.744;2023-06-19T08:32:06;7.10;;;5.82;;
76935;SDS011;65881;52.438;16.744;2023-06-19T08:34:34;9.10;;;7.00;;
76935;SDS011;65881;52.438;16.744;2023-06-19T08:37:00;8.38;;;6.40;;
76935;SDS011;65881;52.438;16.744;2023-06-19T08:39:26;7.93;;;7.13;;
76935;SDS011;65881;52.438;16.744;2023-06-19T08:44:22;8.18;;;6.18;;
76935;SDS011;65881;52.438;16.744;2023-06-19T08:46:50;8.88;;;7.00;;
76935;SDS011;65881;52.438;16.744;2023-06-19T08:49:17;7.90;;;6.80;;
76935;SDS011;65881;52.438;16.744;2023-06-19T08:51:43;8.55;;;7.60;;
76935;SDS011;65881;52.438;16.744;2023-06-19T08:54:08;8.23;;;7.07;;
76935;SDS011;65881;52.438;16.744;2023-06-19T08:56:34;8.32;;;7.20;;
76935;SDS011;65881;52.438;16.744;2023-06-19T08:59:15;7.60;;;6.85;;
76935;SDS011;65881;52.438;16.744;2023-06-19T09:01:50;9.35;;;7.03;;
76935;SDS011;65881;52.438;16.744;2023-06-19T09:04:23;9.15;;;6.75;;
76935;SDS011;65881;52.438;16.744;2023-06-19T09:06:52;8.07;;;6.80;;
76935;SDS011;65881;52.438;16.744;2023-06-19T09:09:20;9.98;;;6.82;;
76935;SDS011;65881;52.438;16.744;2023-06-19T09:14:37;8.30;;;7.07;;
76935;SDS011;65881;52.438;16.744;2023-06-19T09:17:10;8.90;;;6.45;;
76935;SDS011;65881;52.438;16.744;2023-06-19T09:20:01;7.63;;;6.25;;
76935;SDS011;65881;52.438;16.744;2023-06-19T09:22:30;7.93;;;7.13;;
76935;SDS011;65881;52.438;16.744;2023-06-19T09:24:59;7.78;;;6.53;;
76935;SDS011;65881;52.438;16.744;2023-06-19T09:27:31;7.35;;;6.63;;
76935;SDS011;65881;52.438;16.744;2023-06-19T09:29:57;7.05;;;6.15;;
76935;SDS011;65881;52.438;16.744;2023-06-19T09:32:24;7.03;;;6.28;;
76935;SDS011;65881;52.438;16.744;2023-06-19T09:34:52;9.38;;;7.43;;
76935;SDS011;65881;52.438;16.744;2023-06-19T09:37:23;12.75;;;7.43;;
76935;SDS011;65881;52.438;16.744;2023-06-19T09:39:55;7.82;;;7.00;;
76935;SDS011;65881;52.438;16.744;2023-06-19T09:42:30;7.63;;;6.88;;
76935;SDS011;65881;52.438;16.744;2023-06-19T09:45:01;7.43;;;6.72;;
76935;SDS011;65881;52.438;16.744;2023-06-19T09:47:32;7.82;;;6.90;;
76935;SDS011;65881;52.438;16.744;2023-06-19T09:50:01;7.20;;;6.32;;
76935;SDS011;65881;52.438;16.744;2023-06-19T09:52:28;8.43;;;6.97;;
76935;SDS011;65881;52.438;16.744;2023-06-19T09:54:59;8.00;;;7.07;;
76935;SDS011;65881;52.438;16.744;2023-06-19T09:59:54;7.20;;;6.50;;
76935;SDS011;65881;52.438;16.744;2023-06-19T10:02:22;7.65;;;6.38;;
76935;SDS011;65881;52.438;16.744;2023-06-19T10:04:54;8.02;;;6.90;;
76935;SDS011;65881;52.438;16.744;2023-06-19T10:07:22;10.85;;;6.72;;
76935;SDS011;65881;52.438;16.744;2023-06-19T10:17:36;7.38;;;6.63;;
76935;SDS011;65881;52.438;16.744;2023-06-19T10:20:17;10.55;;;6.45;;
76935;SDS011;65881;52.438;16.744;2023-06-19T10:23:00;7.22;;;6.50;;
76935;SDS011;65881;52.438;16.744;2023-06-19T10:28:00;9.75;;;6.97;;
76935;SDS011;65881;52.438;16.744;2023-06-19T10:30:31;7.32;;;6.55;;
76935;SDS011;65881;52.438;16.744;2023-06-19T10:33:01;9.82;;;6.95;;
76935;SDS011;65881;52.438;16.744;2023-06-19T10:35:28;13.15;;;6.82;;
76935;SDS011;65881;52.438;16.744;2023-06-19T10:37:53;7.30;;;6.60;;
76935;SDS011;65881;52.438;16.744;2023-06-19T10:40:19;7.75;;;6.45;;
76935;SDS011;65881;52.438;16.744;2023-06-19T10:42:45;12.48;;;6.72;;
76935;SDS011;65881;52.438;16.744;2023-06-19T10:45:13;8.32;;;7.18;;
76935;SDS011;65881;52.438;16.744;2023-06-19T10:47:42;8.25;;;6.43;;
76935;SDS011;65881;52.438;16.744;2023-06-19T10:50:14;9.07;;;7.47;;
76935;SDS011;65881;52.438;16.744;2023-06-19T10:52:41;6.55;;;5.95;;
76935;SDS011;65881;52.438;16.744;2023-06-19T10:55:12;6.95;;;6.32;;
76935;SDS011;65881;52.438;16.744;2023-06-19T10:57:45;6.72;;;6.13;;
76935;SDS011;65881;52.438;16.744;2023-06-19T11:00:21;7.50;;;6.68;;
76935;SDS011;65881;52.438;16.744;2023-06-19T11:02:55;6.78;;;6.05;;
76935;SDS011;65881;52.438;16.744;2023-06-19T11:05:22;6.63;;;5.97;;
76935;SDS011;65881;52.438;16.744;2023-06-19T11:07:56;9.20;;;7.10;;
76935;SDS011;65881;52.438;16.744;2023-06-19T11:10:23;7.43;;;6.68;;
76935;SDS011;65881;52.438;16.744;2023-06-19T11:12:56;8.20;;;7.38;;
76935;SDS011;65881;52.438;16.744;2023-06-19T11:17:56;7.43;;;6.70;;
76935;SDS011;65881;52.438;16.744;2023-06-19T11:20:22;7.50;;;6.68;;
76935;SDS011;65881;52.438;16.744;2023-06-19T11:22:53;8.07;;;6.80;;
76935;SDS011;65881;52.438;16.744;2023-06-19T11:25:41;12.50;;;8.02;;
76935;SDS011;65881;52.438;16.744;2023-06-19T11:28:14;8.35;;;6.72;;
76935;SDS011;65881;52.438;16.744;2023-06-19T11:31:34;8.50;;;7.68;;
76935;SDS011;65881;52.438;16.744;2023-06-19T11:34:00;9.23;;;7.03;;
76935;SDS011;65881;52.438;16.744;2023-06-19T11:36:27;10.10;;;7.03;;
76935;SDS011;65881;52.438;16.744;2023-06-19T11:38:54;9.15;;;6.70;;
76935;SDS011;65881;52.438;16.744;2023-06-19T11:41:31;9.45;;;7.13;;
76935;SDS011;65881;52.438;16.744;2023-06-19T11:44:00;8.10;;;6.60;;
76935;SDS011;65881;52.438;16.744;2023-06-19T11:46:29;7.13;;;6.43;;
76935;SDS011;65881;52.438;16.744;2023-06-19T11:49:20;7.05;;;6.35;;
76935;SDS011;65881;52.438;16.744;2023-06-19T11:51:46;14.93;;;6.47;;
76935;SDS011;65881;52.438;16.744;2023-06-19T11:54:13;8.70;;;7.13;;
76935;SDS011;65881;52.438;16.744;2023-06-19T11:56:40;9.15;;;7.47;;
76935;SDS011;65881;52.438;16.744;2023-06-19T11:59:06;8.05;;;7.25;;
76935;SDS011;65881;52.438;16.744;2023-06-19T12:01:32;9.10;;;7.22;;
76935;SDS011;65881;52.438;16.744;2023-06-19T12:04:00;13.90;;;7.43;;
76935;SDS011;65881;52.438;16.744;2023-06-19T12:06:30;9.48;;;6.78;;
76935;SDS011;65881;52.438;16.744;2023-06-19T12:08:56;7.65;;;6.93;;
76935;SDS011;65881;52.438;16.744;2023-06-19T12:11:22;9.02;;;7.07;;
76935;SDS011;65881;52.438;16.744;2023-06-19T12:13:48;7.50;;;6.80;;
76935;SDS011;65881;52.438;16.744;2023-06-19T12:16:14;8.52;;;7.18;;
76935;SDS011;65881;52.438;16.744;2023-06-19T12:18:46;7.72;;;7.00;;
76935;SDS011;65881;52.438;16.744;2023-06-19T12:21:27;9.35;;;7.25;;
76935;SDS011;65881;52.438;16.744;2023-06-19T12:23:55;11.30;;;7.60;;
76935;SDS011;65881;52.438;16.744;2023-06-19T12:26:21;8.45;;;6.32;;
76935;SDS011;65881;52.438;16.744;2023-06-19T12:28:49;11.35;;;7.22;;
76935;SDS011;65881;52.438;16.744;2023-06-19T12:31:18;7.28;;;6.63;;
76935;SDS011;65881;52.438;16.744;2023-06-19T12:33:43;6.65;;;6.00;;
76935;SDS011;65881;52.438;16.744;2023-06-19T12:36:13;8.73;;;7.18;;
76935;SDS011;65881;52.438;16.744;2023-06-19T12:38:53;7.22;;;6.53;;
76935;SDS011;65881;52.438;16.744;2023-06-19T12:41:20;8.55;;;6.47;;
76935;SDS011;65881;52.438;16.744;2023-06-19T12:43:46;6.88;;;6.22;;
76935;SDS011;65881;52.438;16.744;2023-06-19T12:46:12;8.25;;;6.53;;
76935;SDS011;65881;52.438;16.744;2023-06-19T12:48:38;8.57;;;6.53;;
76935;SDS011;65881;52.438;16.744;2023-06-19T12:51:05;6.82;;;6.13;;
76935;SDS011;65881;52.438;16.744;2023-06-19T12:53:31;11.00;;;6.50;;
76935;SDS011;65881;52.438;16.744;2023-06-19T12:55:57;8.13;;;6.22;;
76935;SDS011;65881;52.438;16.744;2023-06-19T13:00:53;10.23;;;6.10;;
76935;SDS011;65881;52.438;16.744;2023-06-19T13:03:18;6.80;;;6.00;;
76935;SDS011;65881;52.438;16.744;2023-06-19T13:05:45;6.78;;;6.13;;
76935;SDS011;65881;52.438;16.744;2023-06-19T13:08:11;7.50;;;5.47;;
76935;SDS011;65881;52.438;16.744;2023-06-19T13:10:37;6.90;;;6.20;;
76935;SDS011;65881;52.438;16.744;2023-06-19T13:13:03;7.47;;;6.75;;
76935;SDS011;65881;52.438;16.744;2023-06-19T13:15:30;7.25;;;6.15;;
76935;SDS011;65881;52.438;16.744;2023-06-19T13:17:59;7.57;;;6.25;;
76935;SDS011;65881;52.438;16.744;2023-06-19T13:20:26;6.80;;;6.07;;
76935;SDS011;65881;52.438;16.744;2023-06-19T13:22:51;6.80;;;6.10;;
76935;SDS011;65881;52.438;16.744;2023-06-19T13:25:18;8.18;;;7.10;;
76935;SDS011;65881;52.438;16.744;2023-06-19T13:27:44;8.95;;;6.28;;
76935;SDS011;65881;52.438;16.744;2023-06-19T13:30:10;6.60;;;5.65;;
76935;SDS011;65881;52.438;16.744;2023-06-19T13:32:36;7.68;;;6.97;;
76935;SDS011;65881;52.438;16.744;2023-06-19T13:35:03;6.97;;;6.25;;
76935;SDS011;65881;52.438;16.744;2023-06-19T13:37:30;6.68;;;6.07;;
76935;SDS011;65881;52.438;16.744;2023-06-19T13:39:55;6.68;;;5.95;;
76935;SDS011;65881;52.438;16.744;2023-06-19T13:42:21;7.53;;;6.30;;
76935;SDS011;65881;52.438;16.744;2023-06-19T13:44:47;6.32;;;5.72;;
76935;SDS011;65881;52.438;16.744;2023-06-19T13:47:17;7.53;;;6.53;;
76935;SDS011;65881;52.438;16.744;2023-06-19T13:49:42;14.02;;;7.13;;
76935;SDS011;65881;52.438;16.744;2023-06-19T13:52:08;8.57;;;6.28;;
76935;SDS011;65881;52.438;16.744;2023-06-19T13:54:35;8.82;;;7.07;;
76935;SDS011;65881;52.438;16.744;2023-06-19T13:57:01;8.32;;;6.68;;
76935;SDS011;65881;52.438;16.744;2023-06-19T13:59:27;7.93;;;5.95;;
76935;SDS011;65881;52.438;16.744;2023-06-19T14:01:54;7.53;;;6.63;;
76935;SDS011;65881;52.438;16.744;2023-06-19T14:04:19;6.88;;;6.25;;
76935;SDS011;65881;52.438;16.744;2023-06-19T14:06:45;8.10;;;6.18;;
76935;SDS011;65881;52.438;16.744;2023-06-19T14:09:11;9.13;;;7.05;;
76935;SDS011;65881;52.438;16.744;2023-06-19T14:11:37;10.05;;;7.00;;
76935;SDS011;65881;52.438;16.744;2023-06-19T14:14:03;7.22;;;6.03;;
76935;SDS011;65881;52.438;16.744;2023-06-19T14:16:32;8.15;;;6.50;;
76935;SDS011;65881;52.438;16.744;2023-06-19T14:18:57;8.13;;;6.05;;
76935;SDS011;65881;52.438;16.744;2023-06-19T14:21:23;6.75;;;6.05;;
76935;SDS011;65881;52.438;16.744;2023-06-19T14:26:17;7.10;;;6.40;;
76935;SDS011;65881;52.438;16.744;2023-06-19T14:28:43;8.88;;;5.32;;
76935;SDS011;65881;52.438;16.744;2023-06-19T14:31:09;8.25;;;6.22;;
76935;SDS011;65881;52.438;16.744;2023-06-19T14:33:35;8.38;;;5.50;;
76935;SDS011;65881;52.438;16.744;2023-06-19T14:36:02;6.43;;;5.55;;
76935;SDS011;65881;52.438;16.744;2023-06-19T14:38:28;6.93;;;5.90;;
76935;SDS011;65881;52.438;16.744;2023-06-19T14:41:01;8.23;;;6.00;;
76935;SDS011;65881;52.438;16.744;2023-06-19T14:43:27;6.55;;;5.93;;
76935;SDS011;65881;52.438;16.744;2023-06-19T14:45:53;6.68;;;6.03;;
76935;SDS011;65881;52.438;16.744;2023-06-19T14:48:23;7.13;;;6.03;;
76935;SDS011;65881;52.438;16.744;2023-06-19T14:50:49;5.95;;;5.35;;
76935;SDS011;65881;52.438;16.744;2023-06-19T14:53:15;8.80;;;5.50;;
76935;SDS011;65881;52.438;16.744;2023-06-19T14:55:41;7.32;;;6.07;;
76935;SDS011;65881;52.438;16.744;2023-06-19T14:58:11;15.95;;;6.38;;
76935;SDS011;65881;52.438;16.744;2023-06-19T15:00:37;6.68;;;5.47;;
76935;SDS011;65881;52.438;16.744;2023-06-19T15:03:04;7.15;;;5.70;;
76935;SDS011;65881;52.438;16.744;2023-06-19T15:05:31;6.90;;;6.13;;